Time;durP1;ratioP1;P1;durP2;ratioP2;P2;SDS_P1;SDS_P2;PMS_P1;PMS_P2;Temp;Humidity;BMP_temperature;BMP_pressure;BME280_temperature;BME280_humidity;BME280_pressure;Samples;Min_cycle;Max_cycle;Signal;HPM_P1;HPM_P2
2021/12/10 07:35:40;;;;;;;12.33;6.10;;;;;;;;;;5056875;27;20555;-84
2021/12/10 07:38:06;;;;;;;9.07;6.23;;;;;;;;;;5045578;28;20365;-82
2021/12/10 07:40:34;;;;;;;16.73;7.00;;;-0.90;97.50;;;;;;5057801;28;20510;-83
2021/12/10 07:43:00;;;;;;;5.73;5.20;;;;;;;;;;5064801;28;20406;-83
2021/12/10 07:45:27;;;;;;;8.23;5.43;;;-1.00;97.40;;;;;;5063680;27;20423;-82
2021/12/10 07:47:54;;;;;;;5.50;5.00;;;-1.00;97.30;;;;;;5067827;28;20436;-83
2021/12/10 07:50:25;;;;;;;8.03;5.60;;;-1.00;97.70;;;;;;5066874;28;20496;-83
2021/12/10 07:52:55;;;;;;;7.60;5.00;;;-0.90;98.00;;;;;;5066807;28;20414;-84
2021/12/10 07:55:27;;;;;;;11.60;6.70;;;-0.80;97.90;;;;;;5067120;27;20469;-83
2021/12/10 07:57:53;;;;;;;13.20;5.87;;;;;;;;;;5066475;27;20438;-83
2021/12/10 08:00:21;;;;;;;5.30;4.80;;;-0.60;97.80;;;;;;5068624;28;20401;-82
2021/12/10 08:02:47;;;;;;;10.43;5.00;;;;;;;;;;5066428;28;20406;-83
2021/12/10 08:05:14;;;;;;;6.30;4.93;;;-0.40;97.70;;;;;;5066053;28;20452;-82
2021/12/10 08:07:40;;;;;;;10.77;5.50;;;;;;;;;;5067431;28;20445;-83
2021/12/10 08:10:08;;;;;;;7.70;4.90;;;-0.10;99.90;;;;;;5067554;28;20405;-83
2021/12/10 08:12:34;;;;;;;11.73;4.70;;;;;;;;;;5063850;28;20461;-83
2021/12/10 08:15:00;;;;;;;14.67;7.27;;;;;;;;;;5066010;28;20495;-84
2021/12/10 08:17:26;;;;;;;11.03;7.30;;;;;;;;;;5066019;28;20497;-83
2021/12/10 08:19:52;;;;;;;13.53;7.70;;;;;;;;;;5066007;28;20385;-83
2021/12/10 08:22:19;;;;;;;18.90;8.63;;;0.10;96.00;;;;;;5065653;28;20432;-83
2021/12/10 08:24:45;;;;;;;18.83;7.50;;;;;;;;;;5066601;28;20955;-83
2021/12/10 08:27:12;;;;;;;9.37;6.63;;;;;;;;;;5063923;28;20532;-83
2021/12/10 08:29:41;;;;;;;10.20;6.87;;;;;;;;;;5066329;28;20388;-84
2021/12/10 08:32:07;;;;;;;7.80;6.60;;;-0.60;91.00;;;;;;5063907;28;20388;-84
2021/12/10 08:34:33;;;;;;;7.73;5.90;;;;;;;;;;5067708;28;20811;-83
2021/12/10 08:37:00;;;;;;;14.00;6.27;;;;;;;;;;5067301;27;20431;-84
2021/12/10 08:39:26;;;;;;;9.80;6.67;;;;;;;;;;5070271;27;20442;-83
2021/12/10 08:41:55;;;;;;;9.80;6.37;;;;;;;;;;5066932;27;20503;-83
2021/12/10 08:44:21;;;;;;;12.73;5.77;;;;;;;;;;5068139;28;20421;-84
2021/12/10 08:46:48;;;;;;;6.60;5.13;;;;;;;;;;5051987;28;20419;-83
2021/12/10 08:49:14;;;;;;;13.67;6.90;;;;;;;;;;5053532;28;20393;-82
2021/12/10 08:51:44;;;;;;;6.57;5.90;;;1.60;91.70;;;;;;5053216;28;20414;-83
2021/12/10 08:54:12;;;;;;;18.17;5.50;;;1.40;91.60;;;;;;5048842;28;20824;-82
2021/12/10 08:56:39;;;;;;;15.23;5.90;;;1.40;92.90;;;;;;5049614;28;20983;-82
2021/12/10 08:59:06;;;;;;;13.13;6.20;;;1.50;93.70;;;;;;5051399;28;20440;-83
2021/12/10 09:01:35;;;;;;;90.90;10.23;;;1.20;94.10;;;;;;5052698;28;20434;-81
2021/12/10 09:04:04;;;;;;;39.10;7.30;;;1.40;94.50;;;;;;5051643;28;20374;-82
2021/12/10 09:06:34;;;;;;;14.47;6.20;;;1.10;94.80;;;;;;5050426;28;20417;-82
2021/12/10 09:09:00;;;;;;;9.50;5.87;;;1.00;95.00;;;;;;5061750;28;20499;-83
2021/12/10 09:11:27;;;;;;;22.23;7.97;;;0.90;93.90;;;;;;5074177;28;20769;-83
2021/12/10 09:13:53;;;;;;;9.07;5.63;;;;;;;;;;5062010;28;20469;-83
2021/12/10 09:16:24;;;;;;;20.73;7.00;;;;;;;;;;5051868;28;20928;-83
2021/12/10 09:18:53;;;;;;;17.93;6.93;;;1.20;95.10;;;;;;5050985;28;20423;-82
2021/12/10 09:21:20;;;;;;;14.10;7.37;;;;;;;;;;5051087;28;20430;-82
2021/12/10 09:23:47;;;;;;;10.43;6.07;;;1.30;95.20;;;;;;5050125;28;20438;-82
2021/12/10 09:26:15;;;;;;;14.53;8.50;;;1.30;95.20;;;;;;5050856;28;20439;-82
2021/12/10 09:28:42;;;;;;;16.73;6.37;;;1.50;94.40;;;;;;5051898;28;20454;-83
2021/12/10 09:31:09;;;;;;;24.43;7.40;;;1.40;95.20;;;;;;5051533;28;20429;-82
2021/12/10 09:33:36;;;;;;;6.83;6.10;;;1.30;95.60;;;;;;5051127;28;20811;-83
2021/12/10 09:36:02;;;;;;;8.30;6.00;;;1.60;95.80;;;;;;5051675;28;20451;-83
2021/12/10 09:38:29;;;;;;;10.60;6.67;;;1.60;95.50;;;;;;5051056;28;20423;-83
2021/12/10 09:40:57;;;;;;;8.60;5.57;;;1.60;95.80;;;;;;5051550;28;20485;-83
2021/12/10 09:43:24;;;;;;;6.07;5.47;;;1.70;96.00;;;;;;5051862;28;20782;-83
2021/12/10 09:45:53;;;;;;;16.13;5.90;;;1.80;95.90;;;;;;5052663;28;20500;-83
2021/12/10 09:48:21;;;;;;;7.10;6.37;;;1.70;95.50;;;;;;5053877;28;20451;-82
2021/12/10 09:50:55;;;;;;;7.57;6.20;;;1.80;95.70;;;;;;5053392;28;20392;-82
2021/12/10 09:53:21;;;;;;;12.07;5.40;;;;;;;;;;5052224;28;20493;-83
2021/12/10 09:55:48;;;;;;;8.77;6.90;;;1.80;95.40;;;;;;5050546;28;20792;-82
2021/12/10 09:58:16;;;;;;;21.43;6.97;;;1.50;96.30;;;;;;5049147;28;20409;-83
2021/12/10 10:01:07;;;;;;;14.43;7.10;;;2.00;97.50;;;;;;5052691;28;20487;-83
2021/12/10 10:03:37;;;;;;;6.50;5.30;;;1.70;96.40;;;;;;5051040;28;20509;-83
2021/12/10 10:06:03;;;;;;;7.80;6.83;;;;;;;;;;5051110;28;20864;-83
2021/12/10 10:08:31;;;;;;;18.23;7.30;;;;;;;;;;5053787;28;20414;-83
2021/12/10 10:11:04;;;;;;;8.30;6.50;;;2.00;97.00;;;;;;5052057;28;20389;-83
2021/12/10 10:13:35;;;;;;;12.33;7.40;;;2.30;96.60;;;;;;5049691;28;20454;-83
2021/12/10 10:16:02;;;;;;;14.30;7.17;;;;;;;;;;5051344;28;20473;-82
2021/12/10 10:18:30;;;;;;;7.47;5.67;;;2.00;96.80;;;;;;5050246;28;20476;-82
2021/12/10 10:21:00;;;;;;;10.80;5.63;;;2.00;96.80;;;;;;5050394;28;20495;-82
2021/12/10 10:23:27;;;;;;;6.17;5.20;;;2.20;96.50;;;;;;5049638;28;20381;-82
2021/12/10 10:25:57;;;;;;;6.30;5.00;;;2.20;97.50;;;;;;5048456;28;20413;-82
2021/12/10 10:28:23;;;;;;;10.70;6.63;;;;;;;;;;5061741;27;20473;-82
2021/12/10 10:30:57;;;;;;;6.00;5.50;;;2.40;97.00;;;;;;5029516;28;20414;-82
2021/12/10 10:33:23;;;;;;;10.93;5.30;;;;;;;;;;5043507;28;20415;-82
2021/12/10 10:36:17;;;;;;;5.30;4.37;;;;;;;;;;5110550;22;20493;-82
2021/12/10 10:38:47;;;;;;;13.60;5.20;;;;;;;;;;5076949;28;20373;-83
2021/12/10 10:41:15;;;;;;;6.70;4.60;;;;;;;;;;5068267;28;20525;-83
2021/12/10 10:43:41;;;;;;;6.00;5.37;;;;;;;;;;5052478;28;20373;-83
2021/12/10 10:46:08;;;;;;;8.10;5.80;;;;;;;;;;5058175;28;20441;-83
2021/12/10 10:48:34;;;;;;;8.80;5.20;;;;;;;;;;5067989;28;20422;-83
2021/12/10 10:51:03;;;;;;;13.90;7.03;;;;;;;;;;5072264;28;20466;-83
2021/12/10 10:53:34;;;;;;;17.23;6.00;;;;;;;;;;5052280;28;20377;-83
2021/12/10 10:56:04;;;;;;;6.13;5.23;;;;;;;;;;5059448;28;20573;-83
2021/12/10 10:58:36;;;;;;;6.90;5.57;;;;;;;;;;5073423;28;20474;-83
2021/12/10 11:01:21;;;;;;;5.30;4.97;;;;;;;;;;5072961;28;20393;-83
2021/12/10 11:03:51;;;;;;;10.57;4.40;;;;;;;;;;5070330;28;21104;-83
2021/12/10 11:06:23;;;;;;;9.67;5.60;;;;;;;;;;5071471;28;20437;-80
2021/12/10 11:08:51;;;;;;;11.63;6.47;;;;;;;;;;5071671;28;20483;-83
2021/12/10 11:11:41;;;;;;;5.77;5.13;;;;;;;;;;5072123;28;20521;-83
2021/12/10 11:14:09;;;;;;;10.40;4.97;;;;;;;;;;5071553;28;20796;-83
2021/12/10 11:16:37;;;;;;;5.40;4.90;;;;;;;;;;5066895;28;20433;-83
2021/12/10 11:19:06;;;;;;;9.07;6.10;;;;;;;;;;5069238;28;20409;-83
2021/12/10 11:21:38;;;;;;;11.10;4.00;;;;;;;;;;5069751;28;20451;-82
2021/12/10 11:24:13;;;;;;;5.67;4.97;;;;;;;;;;5050936;28;20449;-80
2021/12/10 11:26:47;;;;;;;7.60;4.13;;;;;;;;;;5060896;28;20457;-81
2021/12/10 11:29:29;;;;;;;5.97;5.37;;;;;;;;;;5066616;28;20413;-80
2021/12/10 11:31:56;;;;;;;8.33;5.20;;;;;;;;;;5055708;28;20432;-81
2021/12/10 11:34:38;;;;;;;9.67;5.37;;;;;;;;;;5072225;28;20595;-82
2021/12/10 11:37:04;;;;;;;6.93;5.17;;;;;;;;;;5071461;28;20406;-81
2021/12/10 11:39:42;;;;;;;6.40;4.43;;;;;;;;;;5052574;28;20779;-81
2021/12/10 11:42:33;;;;;;;6.33;3.43;;;2.70;95.90;;;;;;5051603;28;20417;-81
2021/12/10 11:45:18;;;;;;;8.90;3.87;;;;;;;;;;5070349;28;20944;-80
2021/12/10 11:47:51;;;;;;;4.83;4.53;;;3.00;98.30;;;;;;5062064;28;20489;-80
2021/12/10 11:50:22;;;;;;;6.10;5.60;;;2.80;95.80;;;;;;5051591;28;20461;-81
2021/12/10 11:53:06;;;;;;;4.77;4.37;;;3.20;99.90;;;;;;5052769;28;20930;-80
2021/12/10 11:55:34;;;;;;;11.10;4.63;;;3.10;98.40;;;;;;5062691;28;20495;-80
2021/12/10 11:58:00;;;;;;;4.63;4.17;;;;;;;;;;5073857;28;20506;-80
2021/12/10 12:00:34;;;;;;;5.20;4.77;;;3.20;98.20;;;;;;5084392;28;20440;-80
2021/12/10 12:03:07;;;;;;;4.77;4.33;;;1.90;95.50;;;;;;5074814;28;20414;-80
2021/12/10 12:05:41;;;;;;;12.67;4.63;;;3.20;95.90;;;;;;5081134;28;20490;-80
2021/12/10 12:08:13;;;;;;;4.77;4.20;;;3.30;98.20;;;;;;5089582;28;20438;-81
2021/12/10 12:10:42;;;;;;;4.80;4.40;;;3.30;98.20;;;;;;5093598;28;20424;-81
2021/12/10 12:15:50;;;;;;;5.30;4.90;;;3.40;98.70;;;;;;5094530;28;20604;-81
2021/12/10 12:18:25;;;;;;;9.27;4.87;;;3.40;99.30;;;;;;5094573;28;20461;-81
2021/12/10 12:27:08;;;;;;;9.00;5.47;;;;;;;;;;5059176;28;20966;-81
2021/12/10 12:29:35;;;;;;;4.97;4.57;;;;;;;;;;5055481;28;20411;-81
2021/12/10 12:32:01;;;;;;;4.90;4.60;;;;;;;;;;5053387;28;20415;-81
2021/12/10 12:34:30;;;;;;;8.00;5.00;;;;;;;;;;5054736;28;20518;-82
2021/12/10 21:40:48;;;;;;;19.07;4.90;;;4.20;93.80;;;;;;5067751;28;20603;-83
2021/12/10 21:43:22;;;;;;;14.80;4.30;;;;;;;;;;5066089;28;20483;-83
2021/12/10 21:45:55;;;;;;;10.33;4.47;;;4.30;93.40;;;;;;5067656;28;20428;-83
2021/12/10 21:48:21;;;;;;;9.77;4.23;;;;;;;;;;5070692;28;20416;-83
2021/12/10 21:50:55;;;;;;;4.33;3.00;;;4.40;93.10;;;;;;5067960;28;20389;-83
2021/12/10 21:53:24;;;;;;;5.77;3.67;;;4.20;93.00;;;;;;5064411;28;20428;-83
2021/12/10 21:55:54;;;;;;;5.77;4.60;;;4.40;93.20;;;;;;5065270;28;20948;-83
2021/12/10 21:58:26;;;;;;;3.70;3.30;;;4.40;93.10;;;;;;5067352;28;20410;-83
2021/12/10 22:00:59;;;;;;;3.53;3.23;;;4.40;93.40;;;;;;5056254;28;20942;-82
2021/12/10 22:03:39;;;;;;;8.60;3.87;;;4.20;94.20;;;;;;5051016;28;20438;-82
2021/12/10 22:06:24;;;;;;;10.70;4.63;;;4.20;92.50;;;;;;5056761;28;20954;-82
2021/12/10 22:09:10;;;;;;;4.07;3.87;;;3.70;93.30;;;;;;5053097;28;20445;-83
2021/12/10 22:12:07;;;;;;;8.17;3.80;;;3.70;94.10;;;;;;5047439;28;20446;-80
2021/12/10 22:14:44;;;;;;;4.20;3.83;;;3.80;96.20;;;;;;5057252;28;20421;-82
2021/12/10 22:17:15;;;;;;;5.40;3.90;;;3.80;96.50;;;;;;5060275;28;20465;-82
2021/12/10 22:19:46;;;;;;;11.77;4.87;;;3.80;97.10;;;;;;5065398;28;20459;-82
2021/12/10 22:22:35;;;;;;;7.90;4.07;;;3.80;97.30;;;;;;5053337;28;20787;-80
2021/12/10 22:25:09;;;;;;;7.07;4.00;;;3.30;97.60;;;;;;5051962;28;20495;-80
2021/12/10 22:27:36;;;;;;;8.67;3.67;;;3.60;97.90;;;;;;5060907;28;20407;-81
2021/12/10 22:30:34;;;;;;;5.70;4.27;;;3.70;98.30;;;;;;5066664;28;20654;-81
2021/12/10 22:33:12;;;;;;;8.97;3.80;;;3.60;96.60;;;;;;5065543;28;20497;-81
2021/12/10 22:35:43;;;;;;;7.90;5.50;;;;;;;;;;5056885;28;20449;-81
2021/12/10 22:38:12;;;;;;;12.57;4.90;;;3.50;98.60;;;;;;5061334;28;20405;-81
2021/12/10 22:40:49;;;;;;;9.80;4.57;;;3.60;98.00;;;;;;5063624;28;21097;-81
2021/12/10 22:43:25;;;;;;;12.10;4.80;;;2.70;95.90;;;;;;5063643;28;20433;-82
2021/12/10 22:45:58;;;;;;;7.83;4.57;;;5.10;98.30;;;;;;5065022;28;20910;-81
2021/12/10 22:48:32;;;;;;;17.70;5.80;;;3.50;98.10;;;;;;5066818;28;20447;-82
2021/12/10 22:51:04;;;;;;;12.13;5.60;;;3.50;98.20;;;;;;5056389;28;20544;-81
2021/12/10 22:53:47;;;;;;;17.77;5.80;;;3.50;96.50;;;;;;5050187;28;20937;-81
2021/12/10 22:56:17;;;;;;;10.33;4.73;;;3.50;98.40;;;;;;5052123;28;20560;-81
2021/12/10 22:58:44;;;;;;;13.53;5.83;;;3.30;98.50;;;;;;5041502;28;20466;-81
2021/12/10 23:01:10;;;;;;;5.43;5.03;;;;;;;;;;5053513;28;20560;-81
2021/12/10 23:03:44;;;;;;;8.30;5.50;;;3.50;98.40;;;;;;5051739;28;20402;-81
2021/12/10 23:06:14;;;;;;;10.70;4.90;;;3.40;98.60;;;;;;5044947;28;20435;-80
2021/12/10 23:09:14;;;;;;;10.00;5.87;;;3.60;98.00;;;;;;5041981;28;20432;-80
2021/12/10 23:11:48;;;;;;;9.23;5.67;;;3.40;98.70;;;;;;5034850;28;20419;-81
2021/12/10 23:14:20;;;;;;;13.33;4.70;;;3.30;98.40;;;;;;5033561;28;20882;-81
2021/12/10 23:17:12;;;;;;;11.83;4.13;;;3.30;96.80;;;;;;5041247;28;20430;-81
2021/12/10 23:19:49;;;;;;;5.73;4.13;;;3.20;98.60;;;;;;5053027;28;20445;-81
2021/12/10 23:22:15;;;;;;;6.23;4.20;;;;;;;;;;5051508;28;20404;-81
2021/12/10 23:24:51;;;;;;;6.43;4.40;;;3.20;96.70;;;;;;5052390;28;20434;-81
2021/12/10 23:27:38;;;;;;;5.63;3.47;;;3.10;96.80;;;;;;5033490;28;21120;-81
2021/12/10 23:30:31;;;;;;;4.03;3.73;;;3.10;97.20;;;;;;5037647;28;20430;-81
2021/12/10 23:33:05;;;;;;;4.47;4.20;;;3.10;99.00;;;;;;5050263;28;20434;-81
2021/12/10 23:35:31;;;;;;;10.07;4.27;;;;;;;;;;5047153;28;20454;-82
2021/12/10 23:38:06;;;;;;;11.37;4.47;;;3.10;97.50;;;;;;5053684;28;20487;-82
2021/12/10 23:40:36;;;;;;;5.73;4.07;;;3.10;99.30;;;;;;5044261;28;20442;-82
2021/12/10 23:43:09;;;;;;;5.13;4.60;;;3.10;99.30;;;;;;5047142;28;20526;-82
2021/12/10 23:45:49;;;;;;;11.67;5.13;;;3.10;99.30;;;;;;5044885;28;20421;-82
2021/12/10 23:48:27;;;;;;;5.30;4.90;;;3.00;99.40;;;;;;5043688;28;20917;-82
2021/12/10 23:50:53;;;;;;;10.53;5.50;;;;;;;;;;5045309;28;20396;-82
2021/12/10 23:53:24;;;;;;;10.73;5.90;;;3.20;99.80;;;;;;5045273;28;20453;-82
2021/12/10 23:55:58;;;;;;;7.83;6.37;;;3.40;98.30;;;;;;5045021;28;20434;-82
2021/12/10 23:58:26;;;;;;;6.17;5.17;;;2.90;99.80;;;;;;5044273;28;20696;-82
